Hovedside
METAR-TAF:

METAR-TAF

Lufthavner :

La Ceiba, Honduras

breddegrad: 15-44N, lengdegrad: 086-52W, høyde over havet: 3 m

Gjeldene værobservasjon

Denne rapporten ble laget for 14 minutter siden, klokken 05:00 UTC
Vind 2 kt fra skiftende retning
Temperatur 25°C
Luftfuktighet 89%
Trykk 1013 hPa
Sikt 10 km eller mer
Få skyer i en høyde av 2000 ft

METAR: MHLC 200500Z VRB02KT 9999 FEW020 25/23 Q1013 A2992 NOSIG

Tid: 23:14 (05:14 UTC)

Varsel

Denne rapporten ble laget for 6 timer og 14 minutter siden, klokken 23:00 UTC
Varsel gyldig fra 20. klokken 00 UTC til 20. klokken 24 UTC
Vind 8 kt fra Øst-nordøst
Sikt 10 km eller mer
Få skyer i en høyde av 2600 ft
Blir
fra 20. klokken 02 UTC til 20. klokken 04 UTC
Vind 3 kt fra skiftende retning
Blir
fra 20. klokken 16 UTC til 20. klokken 18 UTC
Vind 12 kt fra Nord-nordøst

TAF: MHLC 192300Z 2000/2024 07008KT 9999 FEW026 TX31/2018Z TN24/2012Z BECMG 2002/2004 VRB03KT BECMG 2016/2018 02012KT

Værobservasjoner og værvarsel for over 4000 flyplasser (METAR- og TAF-rapporter).

Tilgjengelige stasjoner er representert av de røde og gule prikkene på kartet.

Hold musepekeren over prikken for å se navnet på stasjonen.

Klikk så for å se værobservasjoner og -varsler.

For å forandre kartet kan du klikke på den grønne knappen med svart kryss for å zoome inn, på den grønne knappen med strek for å zoome ut, eller på de grønne pilene for å se tilstøtende kart.


METAR-TAF: